sensor_id;sensor_type;location;lat;lon;timestamp;pressure;altitude;pressure_sealevel;temperature;humidity
35676;BME280;21790;42.668;23.298;2022-09-01T00:01:55;94516.75;;;25.13;47.40
35676;BME280;21790;42.668;23.298;2022-09-01T00:04:24;94511.88;;;25.14;48.03
35676;BME280;21790;42.668;23.298;2022-09-01T00:06:53;94506.19;;;25.06;48.14
35676;BME280;21790;42.668;23.298;2022-09-01T00:09:20;94512.00;;;25.00;48.31
35676;BME280;21790;42.668;23.298;2022-09-01T00:11:50;94507.13;;;25.01;48.31
35676;BME280;21790;42.668;23.298;2022-09-01T00:14:18;94508.16;;;24.83;48.65
35676;BME280;21790;42.668;23.298;2022-09-01T00:16:43;94502.38;;;24.96;48.17
35676;BME280;21790;42.668;23.298;2022-09-01T00:19:09;94493.72;;;24.94;48.22
35676;BME280;21790;42.668;23.298;2022-09-01T00:21:41;94495.25;;;25.10;47.86
35676;BME280;21790;42.668;23.298;2022-09-01T00:24:08;94496.00;;;25.11;47.37
35676;BME280;21790;42.668;23.298;2022-09-01T00:26:34;94500.88;;;24.95;48.04
35676;BME280;21790;42.668;23.298;2022-09-01T00:28:59;94500.09;;;24.87;48.02
35676;BME280;21790;42.668;23.298;2022-09-01T00:31:25;94499.31;;;24.86;48.34
35676;BME280;21790;42.668;23.298;2022-09-01T00:33:51;94505.00;;;24.94;48.10
35676;BME280;21790;42.668;23.298;2022-09-01T00:36:17;94506.31;;;24.93;48.15
35676;BME280;21790;42.668;23.298;2022-09-01T00:38:43;94508.97;;;24.91;48.03
35676;BME280;21790;42.668;23.298;2022-09-01T00:41:10;94512.31;;;24.82;48.58
35676;BME280;21790;42.668;23.298;2022-09-01T00:46:06;94519.06;;;24.79;48.74
35676;BME280;21790;42.668;23.298;2022-09-01T00:48:32;94520.00;;;24.74;49.08
35676;BME280;21790;42.668;23.298;2022-09-01T00:50:58;94521.16;;;24.78;48.56
35676;BME280;21790;42.668;23.298;2022-09-01T00:53:24;94518.97;;;24.56;48.78
35676;BME280;21790;42.668;23.298;2022-09-01T00:55:50;94511.59;;;24.45;48.81
35676;BME280;21790;42.668;23.298;2022-09-01T00:58:16;94516.91;;;24.49;48.86
35676;BME280;21790;42.668;23.298;2022-09-01T01:00:41;94511.97;;;24.42;49.30
35676;BME280;21790;42.668;23.298;2022-09-01T01:03:10;94525.63;;;24.66;48.57
35676;BME280;21790;42.668;23.298;2022-09-01T01:05:41;94516.03;;;24.69;48.88
35676;BME280;21790;42.668;23.298;2022-09-01T01:08:11;94527.13;;;24.59;48.75
35676;BME280;21790;42.668;23.298;2022-09-01T01:10:39;94527.72;;;24.66;48.76
35676;BME280;21790;42.668;23.298;2022-09-01T01:13:09;94522.81;;;24.74;48.67
35676;BME280;21790;42.668;23.298;2022-09-01T01:15:35;94519.94;;;24.58;48.52
35676;BME280;21790;42.668;23.298;2022-09-01T01:18:01;94521.09;;;24.63;48.39
35676;BME280;21790;42.668;23.298;2022-09-01T01:20:40;94518.81;;;24.62;48.22
35676;BME280;21790;42.668;23.298;2022-09-01T01:23:36;94517.31;;;24.60;48.68
35676;BME280;21790;42.668;23.298;2022-09-01T01:26:07;94517.84;;;24.51;48.83
35676;BME280;21790;42.668;23.298;2022-09-01T01:28:37;94514.34;;;24.30;49.42
35676;BME280;21790;42.668;23.298;2022-09-01T01:31:06;94518.69;;;24.31;49.37
35676;BME280;21790;42.668;23.298;2022-09-01T01:33:45;94524.72;;;24.35;49.11
35676;BME280;21790;42.668;23.298;2022-09-01T01:36:18;94513.03;;;24.31;49.41
35676;BME280;21790;42.668;23.298;2022-09-01T01:38:47;94522.75;;;24.23;49.44
35676;BME280;21790;42.668;23.298;2022-09-01T01:41:15;94527.16;;;24.31;49.38
35676;BME280;21790;42.668;23.298;2022-09-01T01:43:44;94527.75;;;24.09;49.54
35676;BME280;21790;42.668;23.298;2022-09-01T01:46:10;94526.63;;;24.40;48.79
35676;BME280;21790;42.668;23.298;2022-09-01T01:48:38;94532.56;;;24.22;49.48
35676;BME280;21790;42.668;23.298;2022-09-01T01:51:06;94529.16;;;24.23;49.23
35676;BME280;21790;42.668;23.298;2022-09-01T01:53:32;94525.69;;;24.09;49.74
35676;BME280;21790;42.668;23.298;2022-09-01T01:55:58;94534.00;;;24.15;49.82
35676;BME280;21790;42.668;23.298;2022-09-01T01:58:25;94533.66;;;24.18;49.56
35676;BME280;21790;42.668;23.298;2022-09-01T02:00:54;94540.41;;;24.15;49.64
35676;BME280;21790;42.668;23.298;2022-09-01T02:03:29;94528.88;;;23.85;50.34
35676;BME280;21790;42.668;23.298;2022-09-01T02:06:04;94546.28;;;23.97;50.39
35676;BME280;21790;42.668;23.298;2022-09-01T02:08:32;94546.66;;;23.93;50.39
35676;BME280;21790;42.668;23.298;2022-09-01T02:11:00;94544.19;;;24.18;49.84
35676;BME280;21790;42.668;23.298;2022-09-01T02:13:25;94547.22;;;24.20;49.82
35676;BME280;21790;42.668;23.298;2022-09-01T02:15:56;94543.78;;;24.14;49.92
35676;BME280;21790;42.668;23.298;2022-09-01T02:18:33;94549.03;;;24.10;50.33
35676;BME280;21790;42.668;23.298;2022-09-01T02:21:01;94552.13;;;24.20;49.95
35676;BME280;21790;42.668;23.298;2022-09-01T02:23:27;94545.75;;;23.98;50.21
35676;BME280;21790;42.668;23.298;2022-09-01T02:25:57;94541.72;;;24.14;50.00
35676;BME280;21790;42.668;23.298;2022-09-01T02:28:27;94547.28;;;23.78;50.84
35676;BME280;21790;42.668;23.298;2022-09-01T02:30:54;94539.13;;;23.96;50.27
35676;BME280;21790;42.668;23.298;2022-09-01T02:33:21;94540.94;;;23.86;50.60
35676;BME280;21790;42.668;23.298;2022-09-01T02:35:49;94540.56;;;24.10;49.91
35676;BME280;21790;42.668;23.298;2022-09-01T02:38:16;94541.75;;;23.94;49.94
35676;BME280;21790;42.668;23.298;2022-09-01T02:40:46;94526.44;;;23.82;50.00
35676;BME280;21790;42.668;23.298;2022-09-01T02:43:13;94536.44;;;23.62;49.90
35676;BME280;21790;42.668;23.298;2022-09-01T02:45:43;94530.09;;;23.69;49.88
35676;BME280;21790;42.668;23.298;2022-09-01T02:48:11;94523.53;;;23.74;49.72
35676;BME280;21790;42.668;23.298;2022-09-01T02:50:38;94528.03;;;23.69;49.74
35676;BME280;21790;42.668;23.298;2022-09-01T02:53:04;94517.28;;;23.68;49.88
35676;BME280;21790;42.668;23.298;2022-09-01T02:55:35;94520.88;;;23.68;49.80
35676;BME280;21790;42.668;23.298;2022-09-01T02:58:01;94524.31;;;23.74;49.95
35676;BME280;21790;42.668;23.298;2022-09-01T03:00:27;94525.59;;;23.73;49.77
35676;BME280;21790;42.668;23.298;2022-09-01T03:02:59;94519.78;;;23.71;49.97
35676;BME280;21790;42.668;23.298;2022-09-01T03:05:28;94513.25;;;23.56;50.52
35676;BME280;21790;42.668;23.298;2022-09-01T03:07:56;94523.28;;;23.64;50.85
35676;BME280;21790;42.668;23.298;2022-09-01T03:10:35;94515.50;;;23.78;50.31
35676;BME280;21790;42.668;23.298;2022-09-01T03:13:04;94527.22;;;23.61;50.78
35676;BME280;21790;42.668;23.298;2022-09-01T03:15:31;94523.13;;;23.70;50.38
35676;BME280;21790;42.668;23.298;2022-09-01T03:17:57;94527.06;;;23.46;50.94
35676;BME280;21790;42.668;23.298;2022-09-01T03:20:26;94519.66;;;23.56;50.83
35676;BME280;21790;42.668;23.298;2022-09-01T03:22:52;94509.28;;;23.80;49.90
35676;BME280;21790;42.668;23.298;2022-09-01T03:25:20;94522.88;;;23.60;50.64
35676;BME280;21790;42.668;23.298;2022-09-01T03:27:47;94529.13;;;23.66;50.66
35676;BME280;21790;42.668;23.298;2022-09-01T03:30:13;94537.00;;;23.60;50.78
35676;BME280;21790;42.668;23.298;2022-09-01T03:32:38;94532.28;;;23.63;50.69
35676;BME280;21790;42.668;23.298;2022-09-01T03:35:05;94534.44;;;23.49;51.25
35676;BME280;21790;42.668;23.298;2022-09-01T03:37:30;94530.22;;;23.63;50.73
35676;BME280;21790;42.668;23.298;2022-09-01T03:39:56;94539.19;;;23.54;50.90
35676;BME280;21790;42.668;23.298;2022-09-01T03:42:23;94536.06;;;23.45;51.24
35676;BME280;21790;42.668;23.298;2022-09-01T03:44:53;94535.38;;;23.52;50.80
35676;BME280;21790;42.668;23.298;2022-09-01T03:47:20;94531.19;;;23.66;50.50
35676;BME280;21790;42.668;23.298;2022-09-01T03:49:46;94536.00;;;23.37;51.00
35676;BME280;21790;42.668;23.298;2022-09-01T03:52:15;94537.31;;;23.57;50.09
35676;BME280;21790;42.668;23.298;2022-09-01T03:54:42;94526.31;;;23.66;49.87
35676;BME280;21790;42.668;23.298;2022-09-01T03:57:08;94535.31;;;23.65;49.49
35676;BME280;21790;42.668;23.298;2022-09-01T03:59:35;94541.38;;;23.48;49.96
35676;BME280;21790;42.668;23.298;2022-09-01T04:02:03;94538.66;;;23.22;50.81
35676;BME280;21790;42.668;23.298;2022-09-01T04:04:28;94536.84;;;23.45;49.81
35676;BME280;21790;42.668;23.298;2022-09-01T04:06:57;94540.28;;;23.51;49.80
35676;BME280;21790;42.668;23.298;2022-09-01T04:09:24;94535.97;;;23.50;49.84
35676;BME280;21790;42.668;23.298;2022-09-01T04:11:50;94546.31;;;23.34;50.50
35676;BME280;21790;42.668;23.298;2022-09-01T04:14:15;94544.81;;;23.54;50.02
35676;BME280;21790;42.668;23.298;2022-09-01T04:16:42;94548.03;;;23.38;50.63
35676;BME280;21790;42.668;23.298;2022-09-01T04:19:27;94545.38;;;23.53;50.12
35676;BME280;21790;42.668;23.298;2022-09-01T04:21:56;94535.41;;;23.72;49.59
35676;BME280;21790;42.668;23.298;2022-09-01T04:24:25;94539.19;;;23.54;50.18
35676;BME280;21790;42.668;23.298;2022-09-01T04:26:53;94535.53;;;23.46;50.28
35676;BME280;21790;42.668;23.298;2022-09-01T04:29:20;94539.81;;;23.60;49.91
35676;BME280;21790;42.668;23.298;2022-09-01T04:31:53;94537.16;;;23.42;50.39
35676;BME280;21790;42.668;23.298;2022-09-01T04:34:22;94530.56;;;23.39;50.48
35676;BME280;21790;42.668;23.298;2022-09-01T04:36:49;94541.13;;;23.25;51.05
35676;BME280;21790;42.668;23.298;2022-09-01T04:39:19;94541.38;;;23.48;50.37
35676;BME280;21790;42.668;23.298;2022-09-01T04:41:44;94539.53;;;23.51;50.40
35676;BME280;21790;42.668;23.298;2022-09-01T04:44:12;94534.00;;;23.45;50.45
35676;BME280;21790;42.668;23.298;2022-09-01T04:46:40;94542.66;;;23.68;49.73
35676;BME280;21790;42.668;23.298;2022-09-01T04:49:07;94536.78;;;23.58;50.34
35676;BME280;21790;42.668;23.298;2022-09-01T04:51:40;94542.81;;;23.62;50.42
35676;BME280;21790;42.668;23.298;2022-09-01T04:54:06;94527.25;;;23.69;50.18
35676;BME280;21790;42.668;23.298;2022-09-01T04:56:35;94533.53;;;23.75;49.94
35676;BME280;21790;42.668;23.298;2022-09-01T04:59:01;94533.09;;;23.92;49.75
35676;BME280;21790;42.668;23.298;2022-09-01T05:01:32;94530.31;;;23.99;49.43
35676;BME280;21790;42.668;23.298;2022-09-01T05:04:19;94536.97;;;24.09;49.40
35676;BME280;21790;42.668;23.298;2022-09-01T05:06:48;94535.78;;;24.26;49.37
35676;BME280;21790;42.668;23.298;2022-09-01T05:09:17;94532.34;;;24.20;49.54
35676;BME280;21790;42.668;23.298;2022-09-01T05:11:43;94527.31;;;24.26;49.64
35676;BME280;21790;42.668;23.298;2022-09-01T05:14:11;94524.94;;;24.45;48.99
35676;BME280;21790;42.668;23.298;2022-09-01T05:16:37;94530.16;;;24.69;48.67
35676;BME280;21790;42.668;23.298;2022-09-01T05:19:06;94520.66;;;24.95;48.13
35676;BME280;21790;42.668;23.298;2022-09-01T05:21:32;94528.25;;;25.08;47.36
35676;BME280;21790;42.668;23.298;2022-09-01T05:23:58;94528.63;;;25.12;47.20
35676;BME280;21790;42.668;23.298;2022-09-01T05:26:30;94536.38;;;25.26;47.23
35676;BME280;21790;42.668;23.298;2022-09-01T05:28:59;94520.75;;;25.33;47.17
35676;BME280;21790;42.668;23.298;2022-09-01T05:31:27;94529.84;;;25.47;46.77
35676;BME280;21790;42.668;23.298;2022-09-01T05:33:54;94527.41;;;25.58;46.30
35676;BME280;21790;42.668;23.298;2022-09-01T05:36:22;94524.78;;;25.68;46.59
35676;BME280;21790;42.668;23.298;2022-09-01T05:38:48;94523.06;;;25.72;46.11
35676;BME280;21790;42.668;23.298;2022-09-01T05:41:15;94530.44;;;25.91;46.21
35676;BME280;21790;42.668;23.298;2022-09-01T05:43:42;94522.47;;;25.97;45.82
35676;BME280;21790;42.668;23.298;2022-09-01T05:46:12;94526.63;;;26.03;45.82
35676;BME280;21790;42.668;23.298;2022-09-01T05:48:44;94526.44;;;26.24;45.27
35676;BME280;21790;42.668;23.298;2022-09-01T05:51:11;94524.34;;;26.32;45.38
35676;BME280;21790;42.668;23.298;2022-09-01T05:53:40;94526.97;;;26.45;45.58
35676;BME280;21790;42.668;23.298;2022-09-01T05:56:07;94526.56;;;26.56;44.77
35676;BME280;21790;42.668;23.298;2022-09-01T05:58:34;94533.56;;;26.55;45.10
35676;BME280;21790;42.668;23.298;2022-09-01T06:01:02;94531.78;;;26.67;44.82
35676;BME280;21790;42.668;23.298;2022-09-01T06:03:27;94530.25;;;26.74;44.87
35676;BME280;21790;42.668;23.298;2022-09-01T06:05:54;94517.41;;;26.73;45.05
35676;BME280;21790;42.668;23.298;2022-09-01T06:08:23;94523.81;;;26.89;45.11
35676;BME280;21790;42.668;23.298;2022-09-01T06:10:50;94518.31;;;26.91;44.60
35676;BME280;21790;42.668;23.298;2022-09-01T06:13:17;94516.16;;;27.06;44.31
35676;BME280;21790;42.668;23.298;2022-09-01T06:15:47;94508.03;;;27.03;44.28
35676;BME280;21790;42.668;23.298;2022-09-01T06:18:13;94511.44;;;27.01;44.51
35676;BME280;21790;42.668;23.298;2022-09-01T06:20:43;94501.53;;;27.18;44.53
35676;BME280;21790;42.668;23.298;2022-09-01T06:23:10;94512.25;;;27.27;44.37
35676;BME280;21790;42.668;23.298;2022-09-01T06:25:45;94511.09;;;27.30;44.40
35676;BME280;21790;42.668;23.298;2022-09-01T06:28:16;94516.84;;;27.47;43.65
35676;BME280;21790;42.668;23.298;2022-09-01T06:30:43;94512.88;;;27.50;43.04
35676;BME280;21790;42.668;23.298;2022-09-01T06:33:11;94511.13;;;27.22;43.90
35676;BME280;21790;42.668;23.298;2022-09-01T06:35:38;94505.97;;;27.36;43.77
35676;BME280;21790;42.668;23.298;2022-09-01T06:38:05;94509.13;;;27.40;43.92
35676;BME280;21790;42.668;23.298;2022-09-01T06:40:32;94503.38;;;27.55;43.96
35676;BME280;21790;42.668;23.298;2022-09-01T06:42:58;94501.47;;;27.58;44.17
35676;BME280;21790;42.668;23.298;2022-09-01T06:45:26;94512.59;;;27.63;44.08
35676;BME280;21790;42.668;23.298;2022-09-01T06:47:52;94503.28;;;27.70;44.07
35676;BME280;21790;42.668;23.298;2022-09-01T06:50:21;94502.44;;;27.77;43.67
35676;BME280;21790;42.668;23.298;2022-09-01T06:52:48;94506.78;;;27.78;43.98
35676;BME280;21790;42.668;23.298;2022-09-01T06:55:15;94510.63;;;27.98;43.17
35676;BME280;21790;42.668;23.298;2022-09-01T06:57:42;94512.59;;;28.13;42.65
35676;BME280;21790;42.668;23.298;2022-09-01T07:00:14;94502.81;;;28.23;42.08
35676;BME280;21790;42.668;23.298;2022-09-01T07:02:47;94513.50;;;28.33;42.16
35676;BME280;21790;42.668;23.298;2022-09-01T07:05:14;94509.41;;;28.26;41.92
35676;BME280;21790;42.668;23.298;2022-09-01T07:07:49;94517.38;;;28.45;41.88
35676;BME280;21790;42.668;23.298;2022-09-01T07:10:17;94506.25;;;28.56;41.92
35676;BME280;21790;42.668;23.298;2022-09-01T07:12:51;94503.66;;;28.68;42.05
35676;BME280;21790;42.668;23.298;2022-09-01T07:15:17;94495.69;;;28.66;41.52
35676;BME280;21790;42.668;23.298;2022-09-01T07:17:52;94510.50;;;28.82;41.20
35676;BME280;21790;42.668;23.298;2022-09-01T07:20:19;94507.41;;;28.70;41.31
35676;BME280;21790;42.668;23.298;2022-09-01T07:22:47;94505.88;;;28.69;41.59
35676;BME280;21790;42.668;23.298;2022-09-01T07:25:13;94506.34;;;28.83;41.66
35676;BME280;21790;42.668;23.298;2022-09-01T07:27:40;94510.31;;;28.97;41.45
35676;BME280;21790;42.668;23.298;2022-09-01T07:30:09;94505.38;;;28.98;41.42
35676;BME280;21790;42.668;23.298;2022-09-01T07:32:36;94506.13;;;28.98;41.25
35676;BME280;21790;42.668;23.298;2022-09-01T07:35:03;94503.47;;;29.00;41.17
35676;BME280;21790;42.668;23.298;2022-09-01T07:37:31;94508.50;;;29.19;41.13
35676;BME280;21790;42.668;23.298;2022-09-01T07:40:06;94502.72;;;29.27;40.86
35676;BME280;21790;42.668;23.298;2022-09-01T07:42:32;94496.53;;;29.38;40.92
35676;BME280;21790;42.668;23.298;2022-09-01T07:44:58;94504.25;;;29.55;40.65
35676;BME280;21790;42.668;23.298;2022-09-01T07:47:24;94503.84;;;29.68;40.20
35676;BME280;21790;42.668;23.298;2022-09-01T07:49:49;94503.13;;;29.77;39.92
35676;BME280;21790;42.668;23.298;2022-09-01T07:52:15;94500.19;;;29.58;40.52
35676;BME280;21790;42.668;23.298;2022-09-01T07:54:42;94506.41;;;29.37;40.38
35676;BME280;21790;42.668;23.298;2022-09-01T07:57:07;94504.00;;;29.16;40.95
35676;BME280;21790;42.668;23.298;2022-09-01T07:59:32;94497.09;;;29.36;40.43
35676;BME280;21790;42.668;23.298;2022-09-01T08:01:59;94509.50;;;29.58;39.93
35676;BME280;21790;42.668;23.298;2022-09-01T08:04:28;94505.22;;;29.76;40.20
35676;BME280;21790;42.668;23.298;2022-09-01T08:06:53;94510.38;;;29.87;40.17
35676;BME280;21790;42.668;23.298;2022-09-01T08:09:20;94504.56;;;29.95;39.40
35676;BME280;21790;42.668;23.298;2022-09-01T08:11:45;94504.59;;;30.05;39.80
35676;BME280;21790;42.668;23.298;2022-09-01T08:14:11;94507.19;;;30.20;39.87
35676;BME280;21790;42.668;23.298;2022-09-01T08:16:36;94508.13;;;30.42;39.46
35676;BME280;21790;42.668;23.298;2022-09-01T08:19:02;94507.25;;;30.49;38.86
35676;BME280;21790;42.668;23.298;2022-09-01T08:21:27;94500.03;;;30.38;38.84
35676;BME280;21790;42.668;23.298;2022-09-01T08:23:54;94510.09;;;30.49;38.57
35676;BME280;21790;42.668;23.298;2022-09-01T08:26:23;94500.50;;;30.73;38.83
35676;BME280;21790;42.668;23.298;2022-09-01T08:28:49;94498.56;;;30.75;38.74
35676;BME280;21790;42.668;23.298;2022-09-01T08:31:17;94495.38;;;30.91;38.27
35676;BME280;21790;42.668;23.298;2022-09-01T08:33:45;94496.91;;;30.92;38.49
35676;BME280;21790;42.668;23.298;2022-09-01T08:36:12;94488.16;;;30.90;37.40
35676;BME280;21790;42.668;23.298;2022-09-01T08:38:39;94489.38;;;31.06;37.52
35676;BME280;21790;42.668;23.298;2022-09-01T08:41:34;94468.19;;;31.19;37.09
35676;BME280;21790;42.668;23.298;2022-09-01T08:44:30;94488.41;;;31.42;37.14
35676;BME280;21790;42.668;23.298;2022-09-01T08:47:00;94487.34;;;31.47;37.23
35676;BME280;21790;42.668;23.298;2022-09-01T08:49:28;94481.75;;;31.49;37.22
35676;BME280;21790;42.668;23.298;2022-09-01T08:52:05;94478.78;;;31.37;36.23
35676;BME280;21790;42.668;23.298;2022-09-01T08:54:44;94474.50;;;31.07;36.92
35676;BME280;21790;42.668;23.298;2022-09-01T08:57:23;94465.13;;;31.36;37.15
35676;BME280;21790;42.668;23.298;2022-09-01T08:59:51;94467.81;;;31.34;36.96
35676;BME280;21790;42.668;23.298;2022-09-01T09:08:01;94455.78;;;31.45;36.32
35676;BME280;21790;42.668;23.298;2022-09-01T09:11:15;94446.84;;;31.60;36.60
35676;BME280;21790;42.668;23.298;2022-09-01T09:16:34;94449.09;;;31.92;36.10
35676;BME280;21790;42.668;23.298;2022-09-01T09:19:07;94443.72;;;32.08;36.33
35676;BME280;21790;42.668;23.298;2022-09-01T09:21:37;94451.66;;;32.19;35.54
35676;BME280;21790;42.668;23.298;2022-09-01T09:24:11;94443.66;;;32.27;35.73
35676;BME280;21790;42.668;23.298;2022-09-01T09:26:38;94442.56;;;32.32;35.06
35676;BME280;21790;42.668;23.298;2022-09-01T09:29:03;94444.88;;;32.46;35.18
35676;BME280;21790;42.668;23.298;2022-09-01T09:31:35;94446.81;;;32.64;34.56
35676;BME280;21790;42.668;23.298;2022-09-01T09:36:51;94441.25;;;32.66;33.82
35676;BME280;21790;42.668;23.298;2022-09-01T09:39:17;94437.81;;;32.58;33.95
35676;BME280;21790;42.668;23.298;2022-09-01T09:42:01;94435.59;;;32.90;33.53
35676;BME280;21790;42.668;23.298;2022-09-01T09:44:30;94437.34;;;32.83;33.47
35676;BME280;21790;42.668;23.298;2022-09-01T09:46:57;94424.78;;;32.88;32.91
35676;BME280;21790;42.668;23.298;2022-09-01T09:49:32;94429.16;;;33.01;33.35
35676;BME280;21790;42.668;23.298;2022-09-01T09:54:30;94431.72;;;33.18;32.90
35676;BME280;21790;42.668;23.298;2022-09-01T09:57:17;94431.94;;;33.10;31.34
35676;BME280;21790;42.668;23.298;2022-09-01T10:02:29;94420.09;;;33.04;32.01
35676;BME280;21790;42.668;23.298;2022-09-01T10:04:56;94430.19;;;33.05;32.55
35676;BME280;21790;42.668;23.298;2022-09-01T10:07:29;94416.06;;;33.19;32.64
35676;BME280;21790;42.668;23.298;2022-09-01T10:09:58;94409.28;;;33.14;32.19
35676;BME280;21790;42.668;23.298;2022-09-01T10:12:25;94406.56;;;33.16;31.67
35676;BME280;21790;42.668;23.298;2022-09-01T10:15:02;94408.28;;;32.65;32.23
35676;BME280;21790;42.668;23.298;2022-09-01T10:17:39;94405.50;;;32.56;32.70
35676;BME280;21790;42.668;23.298;2022-09-01T10:20:12;94408.69;;;32.71;33.33
35676;BME280;21790;42.668;23.298;2022-09-01T10:22:39;94398.47;;;32.68;33.47
35676;BME280;21790;42.668;23.298;2022-09-01T10:25:07;94393.53;;;32.80;32.51
35676;BME280;21790;42.668;23.298;2022-09-01T10:27:40;94402.13;;;32.80;32.41
35676;BME280;21790;42.668;23.298;2022-09-01T10:32:47;94392.31;;;32.84;32.61
35676;BME280;21790;42.668;23.298;2022-09-01T10:35:23;94396.84;;;32.65;33.19
35676;BME280;21790;42.668;23.298;2022-09-01T10:37:51;94403.53;;;32.37;33.69
35676;BME280;21790;42.668;23.298;2022-09-01T10:42:49;94396.75;;;32.21;33.90
35676;BME280;21790;42.668;23.298;2022-09-01T10:45:35;94393.38;;;31.82;34.52
35676;BME280;21790;42.668;23.298;2022-09-01T10:48:34;94396.22;;;32.13;34.18
35676;BME280;21790;42.668;23.298;2022-09-01T10:53:44;94390.63;;;31.22;35.16
35676;BME280;21790;42.668;23.298;2022-09-01T10:56:21;94382.09;;;31.84;34.07
35676;BME280;21790;42.668;23.298;2022-09-01T11:04:23;94376.63;;;32.30;33.27
35676;BME280;21790;42.668;23.298;2022-09-01T11:07:31;94370.44;;;31.91;33.73
35676;BME280;21790;42.668;23.298;2022-09-01T11:10:29;94367.78;;;32.05;33.68
35676;BME280;21790;42.668;23.298;2022-09-01T11:15:38;94363.81;;;30.96;35.05
35676;BME280;21790;42.668;23.298;2022-09-01T11:18:28;94366.00;;;31.58;33.99
35676;BME280;21790;42.668;23.298;2022-09-01T11:21:33;94363.91;;;31.17;34.60
35676;BME280;21790;42.668;23.298;2022-09-01T11:27:03;94365.13;;;30.26;35.66
35676;BME280;21790;42.668;23.298;2022-09-01T11:32:20;94353.56;;;30.53;34.73
35676;BME280;21790;42.668;23.298;2022-09-01T11:34:48;94348.97;;;30.88;34.46
35676;BME280;21790;42.668;23.298;2022-09-01T11:37:17;94339.31;;;30.93;34.04
35676;BME280;21790;42.668;23.298;2022-09-01T11:39:53;94332.53;;;30.58;34.34
35676;BME280;21790;42.668;23.298;2022-09-01T11:42:24;94325.84;;;30.84;33.97
35676;BME280;21790;42.668;23.298;2022-09-01T11:44:59;94330.41;;;30.68;34.03
35676;BME280;21790;42.668;23.298;2022-09-01T11:47:38;94316.81;;;31.28;33.69
35676;BME280;21790;42.668;23.298;2022-09-01T11:50:07;94318.81;;;31.26;33.78
35676;BME280;21790;42.668;23.298;2022-09-01T11:52:42;94324.22;;;31.22;33.52
35676;BME280;21790;42.668;23.298;2022-09-01T11:55:28;94309.97;;;31.43;33.07
35676;BME280;21790;42.668;23.298;2022-09-01T11:57:54;94315.88;;;31.66;32.74
35676;BME280;21790;42.668;23.298;2022-09-01T12:00:35;94330.66;;;31.84;32.43
35676;BME280;21790;42.668;23.298;2022-09-01T12:03:19;94312.47;;;32.01;32.26
35676;BME280;21790;42.668;23.298;2022-09-01T12:05:45;94311.84;;;31.81;32.74
35676;BME280;21790;42.668;23.298;2022-09-01T12:08:17;94310.50;;;31.82;32.92
35676;BME280;21790;42.668;23.298;2022-09-01T12:10:44;94305.78;;;31.86;32.63
35676;BME280;21790;42.668;23.298;2022-09-01T12:15:41;94302.41;;;31.99;32.48
35676;BME280;21790;42.668;23.298;2022-09-01T12:18:18;94305.06;;;32.07;33.25
35676;BME280;21790;42.668;23.298;2022-09-01T12:20:46;94302.78;;;32.06;33.29
35676;BME280;21790;42.668;23.298;2022-09-01T12:23:30;94303.91;;;32.01;33.07
35676;BME280;21790;42.668;23.298;2022-09-01T12:26:10;94301.69;;;32.11;33.63
35676;BME280;21790;42.668;23.298;2022-09-01T12:28:38;94297.63;;;32.14;33.44
35676;BME280;21790;42.668;23.298;2022-09-01T12:31:11;94296.81;;;32.23;33.22
35676;BME280;21790;42.668;23.298;2022-09-01T12:33:37;94299.03;;;32.24;33.24
35676;BME280;21790;42.668;23.298;2022-09-01T12:36:25;94292.34;;;32.31;33.08
35676;BME280;21790;42.668;23.298;2022-09-01T12:38:55;94294.66;;;32.12;33.86
35676;BME280;21790;42.668;23.298;2022-09-01T12:41:34;94295.59;;;32.05;34.11
35676;BME280;21790;42.668;23.298;2022-09-01T12:46:53;94295.97;;;32.11;33.75
35676;BME280;21790;42.668;23.298;2022-09-01T12:49:23;94283.91;;;31.79;34.17
35676;BME280;21790;42.668;23.298;2022-09-01T12:52:19;94291.38;;;31.84;34.18
35676;BME280;21790;42.668;23.298;2022-09-01T12:55:13;94311.63;;;31.15;35.26
35676;BME280;21790;42.668;23.298;2022-09-01T12:57:49;94295.53;;;31.72;34.51
35676;BME280;21790;42.668;23.298;2022-09-01T13:00:19;94300.66;;;31.73;34.80
35676;BME280;21790;42.668;23.298;2022-09-01T13:03:02;94291.25;;;31.82;34.53
35676;BME280;21790;42.668;23.298;2022-09-01T13:05:36;94294.78;;;31.71;34.89
35676;BME280;21790;42.668;23.298;2022-09-01T13:08:06;94282.75;;;31.21;36.30
35676;BME280;21790;42.668;23.298;2022-09-01T13:10:53;94284.78;;;31.08;36.53
35676;BME280;21790;42.668;23.298;2022-09-01T13:13:21;94282.06;;;31.10;36.06
35676;BME280;21790;42.668;23.298;2022-09-01T13:15:54;94272.50;;;31.27;35.78
35676;BME280;21790;42.668;23.298;2022-09-01T13:18:21;94268.91;;;31.48;35.51
35676;BME280;21790;42.668;23.298;2022-09-01T13:20:48;94267.63;;;31.39;35.86
35676;BME280;21790;42.668;23.298;2022-09-01T13:23:14;94273.06;;;31.35;36.35
35676;BME280;21790;42.668;23.298;2022-09-01T13:25:40;94266.19;;;31.50;35.72
35676;BME280;21790;42.668;23.298;2022-09-01T13:28:09;94265.91;;;31.25;36.12
35676;BME280;21790;42.668;23.298;2022-09-01T13:30:36;94260.44;;;30.67;37.11
35676;BME280;21790;42.668;23.298;2022-09-01T13:33:02;94273.19;;;30.66;37.25
35676;BME280;21790;42.668;23.298;2022-09-01T13:35:27;94275.94;;;31.04;36.33
35676;BME280;21790;42.668;23.298;2022-09-01T13:37:53;94277.53;;;31.17;36.52
35676;BME280;21790;42.668;23.298;2022-09-01T13:40:21;94278.84;;;31.26;36.51
35676;BME280;21790;42.668;23.298;2022-09-01T13:42:48;94275.44;;;31.39;36.19
35676;BME280;21790;42.668;23.298;2022-09-01T13:45:16;94280.06;;;31.44;36.18
35676;BME280;21790;42.668;23.298;2022-09-01T13:47:45;94277.81;;;31.42;35.75
35676;BME280;21790;42.668;23.298;2022-09-01T13:50:14;94290.13;;;31.45;36.11
35676;BME280;21790;42.668;23.298;2022-09-01T13:52:48;94272.84;;;31.22;37.10